neil on the web!

ADDS Results

1112 UTC 23 September 2021

EGJB 231050Z 29011KT 9999 FEW015 SCT021 17/13 Q1024
EGJB 231020Z 30008KT 9999 FEW015 SCT022 17/12 Q1024
EGJB 230950Z 30008KT 9999 FEW015 BKN022 17/12 Q1024
EGJB 230920Z 30008KT 9999 FEW015 BKN022 16/12 Q1024
TAF EGJB 231100Z 2312/2321 27009KT 9999 FEW015 SCT020
EGJJ 231050Z 29010KT 240V320 9999 FEW019 BKN021 17/12 Q1024
EGJJ 231020Z VRB08KT 9999 FEW020 BKN023 18/12 Q1024
EGJJ 230950Z 29009KT 240V320 9999 FEW018 BKN022 17/12 Q1024
EGJJ 230920Z 32007KT 280V360 9999 FEW016 SCT021 16/12 Q1024
TAF EGJJ 231100Z 2312/2321 27008KT 9999 FEW015 SCT020
EGKK 231050Z 26011KT 9999 BKN014 17/14 Q1021
EGKK 231020Z 25010KT 9999 BKN012 17/14 Q1021
EGKK 230950Z 27010KT 9999 BKN014 16/13 Q1021
EGKK 230920Z 25007KT 9999 BKN014 16/13 Q1021
TAF EGKK 231053Z 2312/2418 26009KT 9999 SCT020
PROB40
TEMPO 2323/2409 4000 BR BKN005
EGSS 231050Z AUTO 28010KT 250V320 9999 SCT022 BKN031 19/14 Q1019
EGSS 231020Z AUTO 28009KT 240V320 9999 FEW020 BKN034 18/14 Q1020
EGSS 230950Z AUTO 27012KT 9999 SCT020 BKN037 18/14 Q1020
EGSS 230920Z AUTO 25008KT 220V290 9999 FEW019 17/13 Q1020
TAF EGSS 231056Z 2312/2418 25009KT 9999 FEW012 SCT025
PROB30
TEMPO 2312/2314 BKN012
PROB30
TEMPO 2322/2403 5000 BR BKN008
PROB40
TEMPO 2403/2408 2000 BR BKN003
EGGW 231050Z AUTO 26016KT 9999 BKN017 20/14 Q1019
EGGW 231020Z AUTO 27016KT 9999 FEW015 OVC033 18/14 Q1020
EGGW 230950Z AUTO 27016KT 9999 FEW014 OVC035 17/14 Q1020
EGGW 230920Z AUTO 27018KT 9999 FEW015 BKN037 17/14 Q1020
TAF EGGW 231056Z 2312/2412 25009KT 9999 FEW010 SCT022
PROB40
TEMPO 2312/2315 BKN010
PROB30
TEMPO 2322/2403 5000 BR BKN006
PROB40
TEMPO 2403/2408 2000 BR BKN002
EGSH 231050Z 26017KT 230V290 9999 FEW026 20/14 Q1017
EGSH 231020Z 25017KT 220V290 9999 FEW012 19/14 Q1017
EGSH 230950Z 25017KT 9999 FEW012 18/14 Q1017
EGSH 230920Z 25016KT 9999 FEW012 17/13 Q1017
TAF EGSH 231103Z 2312/2321 26015KT 9999 SCT020
EGLC 231050Z AUTO 25013KT 9999 SCT018 BKN043 19/14 Q1020
EGLC 231020Z AUTO 25012KT 9999 BKN017 18/13 Q1020
EGLC 230950Z AUTO 25012KT 9999 SCT015 BKN044 17/13 Q1021
EGLC 230920Z AUTO 25012KT 210V270 9999 FEW016 17/13 Q1021
TAF EGLC 231056Z 2312/2321 26010KT 9999 SCT020
EGMC 231050Z 25012KT 9999 FEW037 20/14 Q1019
EGMC 231020Z 26013KT 9999 FEW037 19/13 Q1019
EGMC 230950Z 27013KT 9999 FEW037 18/13 Q1020
EGMC 230920Z 27012KT 9999 FEW037 18/13 Q1020
TAF EGMC 231056Z 2312/2321 25010KT 9999 FEW035
EGLL 231050Z AUTO 26012KT 9999 BKN019 OVC045 19/14 Q1020
EGLL 231020Z AUTO 26011KT 9999 BKN016 19/14 Q1020 NOSIG
EGLL 230950Z AUTO 26010KT 9999 OVC014 17/14 Q1021 BECMG BKN015
EGLL 230920Z AUTO 26010KT 9999 OVC013 17/13 Q1021 BECMG BKN015
TAF EGLL 231055Z 2312/2418 26010KT 9999 SCT020
PROB30
TEMPO 2403/2408 4500 BR BKN004
EGHI 231050Z 29005KT 250V350 9999 BKN020 19/14 Q1022
EGHI 231020Z 27007KT 240V320 9999 BKN018 18/14 Q1022
EGHI 230950Z 27006KT 220V310 9999 BKN015 17/13 Q1022
EGHI 230920Z 26006KT 210V300 9999 BKN014 17/13 Q1022
TAF EGHI 231104Z 2312/2321 28009KT 9999 BKN020
PROB30
TEMPO 2312/2317 BKN014
EGHH 231050Z 29009KT 240V310 9999 BKN020 19/14 Q1022
EGHH 231020Z 28009KT 250V310 9999 BKN018 19/14 Q1022
EGHH 230950Z 28009KT 9999 SCT017 18/13 Q1022
EGHH 230920Z 27011KT 9999 SCT018 18/13 Q1022
TAF EGHH 231104Z 2312/2321 28009KT 9999 BKN020
PROB30
TEMPO 2312/2317 BKN012
EGCC 231050Z 28014KT 9999 FEW022 BKN043 15/11 Q1019
EGCC 231020Z 28013KT 9999 FEW024 16/11 Q1019
EGCC 230950Z AUTO 28011KT 9999 SCT022 16/11 Q1019 NOSIG
EGCC 230920Z AUTO 28013KT 240V320 9999 BKN021 BKN025 16/12 Q1019 TEMPO BKN014
TAF EGCC 231055Z 2312/2418 28012KT 9999 SCT020
PROB30
TEMPO 2312/2402 BKN014
BECMG 2320/2323 22007KT
BECMG 2406/2409 BKN010
PROB30
TEMPO 2409/2418 4000 RADZ BKN007
BECMG 2412/2415 28010KT
EGNX 231050Z 28011KT 9999 SCT023 19/12 Q1018
EGNX 231020Z 28014KT 9999 SCT022 19/13 Q1018
EGNX 230950Z 26017KT 9999 FEW019 SCT032 19/14 Q1018
EGNX 230920Z 25019KT 9999 FEW016 SCT032 18/13 Q1018
TAF EGNX 231059Z 2312/2412 28014KT 9999 SCT030
BECMG 2317/2320 23004KT
PROB30
TEMPO 2400/2408 8000
EGGP 231050Z 28022KT 9999 FEW014 SCT019 BKN025 16/11 Q1020
EGGP 231020Z 28023KT 9999 FEW012 SCT018 16/12 Q1019
EGGP 230950Z 28021KT 9999 FEW012 SCT018 17/11 Q1019
EGGP 230920Z 28021KT 9999 FEW010 SCT015 17/11 Q1019
TAF EGGP 231055Z 2312/2412 28015KT 9999 SCT025
PROB30
TEMPO 2312/2314 29018G28KT
BECMG 2320/2323 22007KT
BECMG 2406/2409 BKN012
PROB30
TEMPO 2408/2412 4000 RADZ BKN009
BECMG 2409/2412 28010KT
EGNM 231050Z 26013KT 9999 SCT015 BKN019 14/11 Q1017
EGNM 231020Z 25018G28KT 9999 SCT015 SCT020 14/10 Q1017
EGNM 230950Z 25024KT 9999 FEW010 SCT015 14/11 Q1016
EGNM 230920Z 26022KT 9999 FEW010 SCT015 14/11 Q1016
TAF AMD EGNM 231110Z 2312/2412 27012KT 9999 SCT015
PROB30
TEMPO 2312/2314 27018G28KT
PROB30
TEMPO 2314/2406 BKN014
BECMG 2406/2409 21010KT
TEMPO 2406/2412 4000 RADZ BKN006
PROB30
TEMPO 2409/2412 22015G25KT BKN004
EGBB 231050Z 27010KT 240V310 9999 SCT025 20/14 Q1019
EGBB 231020Z 25007KT 210V290 9999 SCT020 18/15 Q1019
EGBB 230950Z 23007KT 200V290 9999 BKN015 17/15 Q1019
EGBB 230920Z 24008KT 200V260 9999 BKN015 17/14 Q1020
TAF EGBB 231059Z 2312/2412 28008KT 9999 SCT030
PROB30
TEMPO 2400/2408 8000
EGGD 231050Z AUTO 26016KT 9999 OVC002 17/16 Q1021
EGGD 231020Z 25015KT 9999 FEW003 BKN004 16/15 Q1022
EGGD 230950Z 26015KT 9999 BKN005 16/15 Q1022
EGGD 230920Z 27017KT 9999 BKN005 16/15 Q1022
TAF EGGD 231057Z 2312/2412 25012KT 9999 BKN008
TEMPO 2312/2314 3000 DZ BKN003
PROB30
TEMPO 2312/2313 0300 FG BKN000
BECMG 2313/2316 SCT010
PROB30
TEMPO 2316/2318 BKN012
PROB30
TEMPO 2400/2408 9000 BKN006
PROB40
TEMPO 2410/2412 BKN012
EGFF 231050Z AUTO 27011KT 9999 BKN003 OVC012 17/17 Q1021 RERA
EGFF 231020Z AUTO 27013KT 4400 RA OVC002 17/17 Q1021 REDZ
EGFF 230950Z AUTO 27012KT 1700 RADZ OVC002 17/17 Q1021
EGFF 230920Z AUTO 27013KT 2400 DZ BKN003 OVC007 16/16 Q1021
TAF EGFF 231057Z 2312/2412 26010KT 9999 BKN009
BECMG 2312/2314 FEW015
PROB30
TEMPO 2312/2313 6000 -DZ
PROB30
TEMPO 2314/2316 BKN014
PROB30
TEMPO 2403/2409 9000 BKN009
BECMG 2409/2412 BKN006
TEMPO 2410/2412 3000 DZ BKN004
EGTE 231050Z 28008KT 230V310 9999 VCSH FEW012 BKN018 19/15 Q1022
EGTE 231020Z 26009KT 220V300 9999 BKN019 19/15 Q1022
EGTE 230920Z 26006KT 220V320 9999 BKN019 19/15 Q1022
TAF EGTE 231101Z 2312/2317 27009KT 9999 SCT020
TEMPO 2312/2317 BKN010
PROB30
TEMPO 2312/2316 7000 -DZ BKN007
EGPF 231050Z AUTO 27010KT 9999 BKN024 17/12 Q1015
EGPF 231020Z AUTO 27013KT 240V300 9999 BKN023 16/12 Q1015
EGPF 230950Z AUTO 27014KT 9999 BKN021 BKN030 15/12 Q1014
EGPF 230920Z AUTO 26013KT 8000 BKN020 OVC030 15/12 Q1014
TAF EGPF 231103Z 2312/2412 25012KT 9999 FEW015 SCT025
TEMPO 2312/2321 7000 -RA BKN012
PROB30
TEMPO 2312/2321 4000 RADZ BKN006
PROB40
TEMPO 2319/2412 25015G25KT
TEMPO 2400/2410 6000 -RADZ BKN010
PROB40
TEMPO 2400/2409 2500 RADZ BR BKN004
EGPH 231050Z 25012KT 9999 OVC020 16/12 Q1014
EGPH 231020Z 25011KT 9999 OVC019 15/12 Q1014
EGPH 230950Z 26012KT 230V300 9999 BKN019 15/12 Q1013
EGPH 230920Z 26015KT 9999 BKN019 16/12 Q1013
TAF EGPH 231103Z 2312/2412 25012KT 9999 SCT020
PROB30
TEMPO 2312/2314 7000 -RA BKN012
TEMPO 2316/2322 7000 -RA BKN012
PROB30
TEMPO 2316/2322 4000 RADZ BKN008
PROB30
TEMPO 2319/2321 26018G30KT
BECMG 2321/2324 24018G32KT
TEMPO 2403/2409 6000 -RADZ BKN008
EGPK 231050Z 25012KT 9999 SCT012 BKN026 14/13 Q1016
EGPK 231020Z 27013KT 9999 BKN020 BKN025 15/12 Q1016 RERA
EGPK 230950Z 27017KT 9999 BKN018 BKN024 15/12 Q1016
EGPK 230920Z 27015KT 9999 BKN021 BKN027 15/12 Q1015
TAF EGPK 231103Z 2312/2412 25012KT 9999 FEW015 SCT025
TEMPO 2312/2321 7000 -RA BKN012
PROB30
TEMPO 2312/2321 4000 RADZ BKN006
PROB30
TEMPO 2319/2324 25015G25KT
TEMPO 2400/2410 6000 -DZ BKN008
PROB40
TEMPO 2400/2412 25017G27KT
PROB40
TEMPO 2400/2409 2500 RADZ BR BKN004
EHAM 231055Z 25017KT 220V280 9999 FEW019 SCT029 BKN048 18/13 Q1017 NOSIG
EHAM 231025Z 25017KT 220V280 9999 FEW019 SCT035 18/13 Q1017 NOSIG
EHAM 230955Z 26018KT 220V290 9999 BKN018 17/13 Q1017 BECMG BKN030
EHAM 230925Z 25018KT 220V280 9999 BKN021 17/13 Q1017 TEMPO BKN019
TAF EHAM 230440Z 2306/2412 23012KT 9999 SCT035
BECMG 2306/2309 26017G27KT
BECMG 2314/2317 30010KT
BECMG 2321/2324 22006KT
BECMG 2407/2410 25015KT
LFLS 231100Z AUTO VRB02KT CAVOK 21/14 Q1023 NOSIG
LFLS 231030Z AUTO VRB02KT CAVOK 20/14 Q1023 NOSIG
LFLS 231000Z AUTO VRB01KT CAVOK 19/13 Q1023 NOSIG
LFLS 230930Z AUTO VRB02KT CAVOK 18/14 Q1023 NOSIG
TAF LFLS 230800Z 2309/2409 09004KT CAVOK
PROB40
TEMPO 2312/2317 22010KT
LFLL 231100Z 14003KT 040V200 9999 FEW015 20/13 Q1023 NOSIG
LFLL 231030Z 09005KT 040V160 9999 FEW010 20/13 Q1023 NOSIG
LFLL 231000Z 11004KT 030V190 9999 FEW008 19/13 Q1023 NOSIG
LFLL 230930Z 10004KT 020V150 9999 FEW005 18/12 Q1023 NOSIG
TAF LFLL 230500Z 2306/2412 VRB03KT CAVOK
TEMPO 2306/2310 3000 BR
PROB30
TEMPO 2306/2308 0500 BCFG
TEMPO 2315/2321 04006KT
TEMPO 2401/2409 3000 BR
PROB30
TEMPO 2405/2408 0500 BCFG
LFLC 231100Z AUTO VRB03KT CAVOK 21/11 Q1022 NOSIG
LFLC 231030Z AUTO VRB02KT CAVOK 20/11 Q1022 NOSIG
LFLC 231000Z AUTO VRB02KT CAVOK 19/12 Q1022 NOSIG
LFLC 230930Z AUTO 14004KT 070V200 CAVOK 18/11 Q1022 NOSIG
TAF LFLC 230500Z 2306/2406 VRB02KT CAVOK
TEMPO 2306/2309 0600 FG VV///
BECMG 2312/2315 01006KT
PROB40 2401/2406 0600 FG VV///
LFRD 231100Z AUTO 35009KT 9999 BKN024 18/13 Q1024 NOSIG
LFRD 231030Z AUTO 35008KT 310V020 9999 SCT025 18/12 Q1024 NOSIG
LFRD 231000Z AUTO 35008KT 320V020 9999 BKN025 18/12 Q1024 NOSIG
LFRD 230930Z AUTO 36010KT 9999 BKN022 BKN028 17/12 Q1024 NOSIG
TAF LFRD 230500Z 2306/2406 VRB03KT 0300 FG VV///
BECMG 2306/2308 3000 BR SCT010
BECMG 2308/2310 34008KT 9999 NSW
BECMG 2318/2320 VRB05KT BKN010
PROB40
TEMPO 2400/2406 3000 DZRA BKN004
LFRC 231100Z AUTO 30013KT 270V330 9999 BKN021 17/11 Q1023 NOSIG
LFRC 231030Z AUTO 30010KT 260V330 9999 BKN020 17/11 Q1023 NOSIG
LFRC 231000Z AUTO 30011KT 260V320 9999 OVC020 16/11 Q1023 NOSIG
LFRC 230930Z AUTO 28012KT 9999 OVC019 16/11 Q1023 NOSIG
TAF LFRC 230800Z 2309/2318 30010KT 9999 BKN018
BECMG 2315/2318 BKN013
VHHH 231100Z 18005KT 080V250 9999 FEW012 SCT025 28/24 Q1013 TEMPO 3000 TSRA SHRA
FEW008CB SCT020 BKN040
VHHH 231030Z 09009KT 9999 -SHRA FEW012 SCT025 28/24 Q1013 TEMPO 3000 TSRA SHRA
FEW008CB SCT020 BKN040
VHHH 231000Z 10012KT 9999 FEW012 SCT025 29/24 Q1013 TEMPO 3000 TSRA SHRA
FEW008CB SCT020 BKN040
VHHH 230930Z 08013KT 9999 -SHRA FEW010CB FEW012 SCT025 29/26 Q1013 TEMPO 3000
TSRA SHRA FEW008CB SCT020 BKN040
TAF VHHH 230500Z 2306/2412 10010KT 9999 FEW015 SCT025 TX31/2306Z TX31/2406Z
TN27/2322Z
TEMPO 2306/2312 3000 TSRA SHRA FEW008CB SCT020 BKN040
TEMPO 2312/2318 4000 SHRA FEW010CB SCT020
TEMPO 2400/2406 3000 TSRA SHRA FEW008CB SCT020 BKN040
TEMPO 2406/2412 4000 SHRA FEW010CB SCT020